Time;durP1;ratioP1;P1;durP2;ratioP2;P2;SDS_P1;SDS_P2;PMS_P1;PMS_P2;Temp;Humidity;BMP_temperature;BMP_pressure;BME280_temperature;BME280_humidity;BME280_pressure;Samples;Min_cycle;Max_cycle;Signal;HPM_P1;HPM_P2
2023/07/18 07:05:59;;;;;;;7.40;0.40;;;;;;;17.97;76.70;101532.03;7269927;19;21402;31
2023/07/18 07:08:46;;;;;;;5.57;0.40;;;;;;;18.01;76.05;101532.50;7305751;19;20011;-74
2023/07/18 07:12:05;;;;;;;;;;;;;;;;;;;;;
2023/07/18 07:14:54;;;;;;;2.97;0.45;;;;;;;18.06;76.04;101528.25;7361315;19;20074;-78
2023/07/18 07:17:22;;;;;;;3.70;0.30;;;;;;;18.07;75.39;101521.09;7378746;19;21647;-80
2023/07/18 07:19:50;;;;;;;5.57;0.38;;;;;;;18.08;75.36;101520.09;7386896;19;20018;-79
2023/07/18 07:22:17;;;;;;;9.50;0.65;;;;;;;18.14;76.83;101517.50;7387496;19;20010;-78
2023/07/18 07:24:46;;;;;;;4.72;0.50;;;;;;;18.16;75.94;101520.81;7382004;19;20026;-77
2023/07/18 07:27:14;;;;;;;4.38;1.15;;;;;;;18.18;75.39;101513.47;7387336;19;20433;-78
2023/07/18 07:29:41;;;;;;;5.18;0.50;;;;;;;18.20;75.48;101519.44;7389682;19;20022;-79
2023/07/18 07:32:09;;;;;;;3.58;0.60;;;;;;;18.26;75.36;101508.03;7390251;19;20392;-79
2023/07/18 07:34:36;;;;;;;2.25;0.50;;;;;;;18.28;74.99;101508.69;7381216;19;20022;-79
2023/07/18 07:37:10;;;;;;;4.38;0.38;;;;;;;18.29;74.40;101502.31;7367739;19;20029;-80
2023/07/18 07:39:38;;;;;;;4.45;1.20;;;;;;;18.33;75.51;101500.13;7363782;19;20003;-79
2023/07/18 07:42:06;;;;;;;5.25;0.82;;;;;;;18.38;75.21;101508.38;7366841;19;20013;-79
2023/07/18 07:44:33;;;;;;;8.68;0.70;;;;;;;18.43;75.26;101506.00;7365839;19;20006;-78
2023/07/18 07:47:00;;;;;;;3.17;0.38;;;;;;;18.48;74.26;101505.44;7373028;19;20737;-78
2023/07/18 07:49:27;;;;;;;5.20;0.30;;;;;;;18.53;74.79;101506.53;7366844;19;20034;-80
2023/07/18 07:51:54;;;;;;;5.95;0.63;;;;;;;18.58;74.75;101506.81;7369370;19;20053;-79
2023/07/18 07:54:23;;;;;;;3.53;0.60;;;;;;;18.60;73.90;101495.94;7367492;19;20097;-80
2023/07/18 07:56:51;;;;;;;3.10;0.30;;;;;;;18.61;73.66;101493.09;7374040;19;20018;-83
2023/07/18 07:59:18;;;;;;;3.10;0.43;;;;;;;18.62;73.49;101497.41;7366971;19;20426;-81
2023/07/18 08:01:45;;;;;;;6.30;0.70;;;;;;;18.66;73.63;101487.19;7372060;19;20017;-81
2023/07/18 08:04:12;;;;;;;2.30;0.40;;;;;;;18.72;73.59;101494.44;7366152;19;20081;-81
2023/07/18 08:06:39;;;;;;;3.65;0.30;;;;;;;18.76;73.79;101485.03;7365858;19;20368;-80
2023/07/18 08:09:06;;;;;;;3.33;0.30;;;;;;;18.82;73.46;101480.78;7369871;19;20026;-80
2023/07/18 08:11:34;;;;;;;4.53;0.50;;;;;;;18.87;73.06;101475.72;7373515;19;20014;-79
2023/07/18 08:14:01;;;;;;;5.45;0.40;;;;;;;18.91;72.90;101474.31;7373753;19;20074;-78
2023/07/18 08:16:29;;;;;;;2.70;0.30;;;;;;;18.95;72.56;101470.22;7373939;19;20018;-80
2023/07/18 08:18:57;;;;;;;6.88;0.47;;;;;;;18.95;72.27;101462.22;7368613;19;20053;-81
2023/07/18 08:21:25;;;;;;;5.43;0.35;;;;;;;19.00;71.59;101468.63;7370956;19;20024;-81
2023/07/18 08:23:52;;;;;;;4.30;0.38;;;;;;;19.03;72.06;101462.94;7340140;19;20018;-80
2023/07/18 08:26:23;;;;;;;9.07;0.40;;;;;;;19.08;72.17;101449.84;7362866;19;20768;-80
2023/07/18 08:28:50;;;;;;;5.10;0.50;;;;;;;19.14;70.74;101457.09;7357842;19;20070;-80
2023/07/18 08:31:19;;;;;;;4.60;0.30;;;;;;;19.20;69.78;101456.28;7360817;19;20015;-80
2023/07/18 08:33:46;;;;;;;5.97;0.30;;;;;;;19.24;69.93;101451.41;7366678;19;20052;-80
2023/07/18 08:36:18;;;;;;;4.57;0.30;;;;;;;19.29;69.06;101453.50;7363610;19;20133;-80
2023/07/18 08:38:49;;;;;;;6.50;0.60;;;;;;;19.37;68.60;101453.31;7361595;19;20015;-81
2023/07/18 08:41:20;;;;;;;2.47;0.30;;;;;;;19.41;68.95;101444.72;7367781;19;20593;-80
2023/07/18 08:43:49;;;;;;;4.80;0.70;;;;;;;19.45;69.29;101446.06;7368261;19;21304;-81
2023/07/18 08:46:19;;;;;;;5.82;0.40;;;;;;;19.51;68.61;101447.91;7367264;19;20014;-80
2023/07/18 08:48:50;;;;;;;2.65;0.30;;;;;;;19.59;69.20;101438.94;7369232;19;20021;-80
2023/07/18 08:51:17;;;;;;;3.65;0.30;;;;;;;19.63;67.31;101433.00;7366199;19;20014;-80
2023/07/18 08:53:45;;;;;;;2.33;0.30;;;;;;;19.71;66.08;101437.34;7362964;19;20025;-79
2023/07/18 08:56:16;;;;;;;5.63;0.43;;;;;;;19.78;64.89;101432.88;7364199;19;20015;-80
2023/07/18 08:58:43;;;;;;;2.58;0.30;;;;;;;19.86;64.76;101431.91;7361917;19;20024;-80
2023/07/18 09:01:10;;;;;;;2.63;0.30;;;;;;;19.93;62.82;101433.56;7354539;19;20010;-80
2023/07/18 09:03:38;;;;;;;3.72;0.20;;;;;;;19.99;61.80;101431.94;7366261;19;20014;-80
2023/07/18 09:06:21;;;;;;;2.90;0.30;;;;;;;20.09;61.94;101435.06;7365238;19;20353;-78
2023/07/18 09:08:49;;;;;;;3.38;0.40;;;;;;;20.18;62.33;101435.69;7360259;19;20103;-78
2023/07/18 09:11:20;;;;;;;4.00;0.30;;;;;;;20.23;62.51;101434.06;7366903;19;20263;-79
2023/07/18 09:13:48;;;;;;;5.32;0.22;;;;;;;20.32;62.90;101445.44;7367601;19;20086;-80
2023/07/18 09:16:20;;;;;;;5.82;0.40;;;;;;;20.38;62.38;101436.59;7368140;19;20019;-78
2023/07/18 09:18:52;;;;;;;3.33;0.20;;;;;;;20.41;61.54;101437.06;7364324;19;20018;-81
2023/07/18 09:21:20;;;;;;;4.57;0.30;;;;;;;20.46;61.87;101433.78;7366381;19;20516;-79
2023/07/18 09:23:49;;;;;;;3.05;0.30;;;;;;;20.55;62.32;101426.38;7362391;19;20314;-81
2023/07/18 09:26:21;;;;;;;4.47;0.30;;;;;;;20.62;62.11;101437.91;7365811;19;20018;-79
2023/07/18 09:28:51;;;;;;;4.95;0.32;;;;;;;20.68;61.71;101418.34;7361539;19;21278;-79
2023/07/18 09:31:24;;;;;;;3.72;0.30;;;;;;;20.73;61.43;101421.22;7363219;19;20060;-80
2023/07/18 09:33:54;;;;;;;3.92;0.40;;;;;;;20.78;61.69;101416.09;7363344;19;20028;-79
2023/07/18 09:36:25;;;;;;;5.60;0.45;;;;;;;20.84;61.86;101425.97;7366306;19;20025;-79
2023/07/18 09:38:52;;;;;;;3.80;0.30;;;;;;;20.90;63.47;101425.16;7360596;19;20026;-81
2023/07/18 09:41:21;;;;;;;2.75;0.30;;;;;;;20.93;62.63;101428.25;7364067;19;20070;-79
2023/07/18 09:43:52;;;;;;;2.90;0.63;;;;;;;20.99;62.71;101420.41;7364065;19;20570;-81
2023/07/18 09:46:40;;;;;;;2.38;0.30;;;;;;;21.09;62.91;101424.31;7364868;19;20002;-80
2023/07/18 09:49:07;;;;;;;3.85;0.47;;;;;;;21.18;62.20;101420.44;7363597;19;20011;-80
2023/07/18 09:51:44;;;;;;;1.60;0.40;;;;;;;21.28;62.32;101420.03;7365376;19;20014;-81
2023/07/18 09:54:13;;;;;;;4.07;0.50;;;;;;;21.32;61.49;101410.53;7362131;19;20018;-80
2023/07/18 09:56:43;;;;;;;2.97;0.40;;;;;;;21.38;61.62;101416.94;7367629;19;20038;-82
2023/07/18 09:59:10;;;;;;;1.75;0.30;;;;;;;21.40;60.24;101407.63;7362644;19;20017;-79
2023/07/18 10:01:37;;;;;;;2.42;0.20;;;;;;;21.45;59.92;101399.78;7363890;19;20415;-79
2023/07/18 10:04:05;;;;;;;2.08;0.30;;;;;;;21.48;60.40;101414.63;7362725;19;20446;-78
2023/07/18 10:06:33;;;;;;;2.88;0.47;;;;;;;21.49;60.61;101416.25;7364582;19;20010;-80
2023/07/18 10:09:02;;;;;;;5.63;1.13;;;;;;;21.48;60.12;101410.09;7360293;19;20078;-79
2023/07/18 10:11:29;;;;;;;1.77;0.20;;;;;;;21.46;58.51;101417.50;7365909;19;20066;-81
2023/07/18 10:14:05;;;;;;;2.42;0.22;;;;;;;21.43;57.96;101407.22;7361037;19;20019;-78
2023/07/18 10:16:35;;;;;;;2.97;0.20;;;;;;;21.44;58.29;101406.19;7366341;19;20609;-78
2023/07/18 10:19:24;;;;;;;2.25;0.20;;;;;;;21.49;58.48;101401.00;7364494;19;20028;-81
2023/07/18 10:21:52;;;;;;;4.32;0.60;;;;;;;21.49;58.07;101395.66;7363198;19;20499;-81
2023/07/18 10:24:28;;;;;;;3.42;0.20;;;;;;;21.49;57.34;101401.00;7363782;19;20019;-79
2023/07/18 10:26:58;;;;;;;0.90;0.10;;;;;;;21.43;57.36;101390.34;7364952;19;20689;-77
2023/07/18 10:29:31;;;;;;;2.17;0.20;;;;;;;21.44;58.41;101391.97;7362493;19;20484;-80
2023/07/18 10:32:00;;;;;;;;;;;;;;;21.43;58.29;101388.50;7359278;19;20404;-79
2023/07/18 10:34:27;;;;;;;3.40;0.30;;;;;;;21.42;60.26;101386.00;7363892;19;20015;-79
2023/07/18 10:36:59;;;;;;;2.03;0.28;;;;;;;21.41;59.37;101387.88;7367837;19;20014;-78
2023/07/18 10:39:40;;;;;;;6.13;0.30;;;;;;;21.46;59.67;101393.41;7357257;19;20014;-79
2023/07/18 10:42:21;;;;;;;3.88;0.30;;;;;;;21.56;60.24;101382.25;7361609;19;20022;-77
2023/07/18 10:44:54;;;;;;;3.10;0.20;;;;;;;21.68;59.76;101385.94;7366598;19;20018;-79
2023/07/18 10:47:22;;;;;;;4.47;0.55;;;;;;;21.73;60.02;101378.91;7363493;19;20006;-79
2023/07/18 10:49:49;;;;;;;3.47;0.30;;;;;;;21.81;59.22;101391.22;7360264;19;20015;-79
2023/07/18 10:52:18;;;;;;;5.32;0.30;;;;;;;21.87;59.28;101378.84;7364463;19;20121;-79
2023/07/18 10:54:50;;;;;;;6.93;0.32;;;;;;;21.91;58.99;101385.41;7361052;19;20011;-78
2023/07/18 10:57:25;;;;;;;3.88;0.40;;;;;;;21.90;57.98;101381.06;7366531;19;20709;-78
2023/07/18 10:59:53;;;;;;;2.35;0.20;;;;;;;21.88;57.90;101373.28;7364887;19;20050;-79
2023/07/18 11:02:24;;;;;;;4.32;0.30;;;;;;;21.93;58.26;101377.97;7366336;19;20055;-78
2023/07/18 11:04:51;;;;;;;3.53;0.30;;;;;;;21.94;57.67;101369.75;7362953;19;20015;-78
2023/07/18 11:07:18;;;;;;;4.10;0.30;;;;;;;21.95;58.58;101367.88;7359204;19;20623;-80
2023/07/18 11:09:45;;;;;;;4.78;0.50;;;;;;;22.00;58.24;101358.16;7361287;19;20367;-78
2023/07/18 11:12:17;;;;;;;3.17;0.30;;;;;;;22.07;58.91;101369.69;7364503;19;20459;-79
2023/07/18 11:14:46;;;;;;;1.80;0.30;;;;;;;22.14;59.53;101365.13;7362776;19;20018;-78
2023/07/18 11:17:16;;;;;;;3.30;0.40;;;;;;;22.22;58.61;101365.88;7358453;19;20007;-79
2023/07/18 11:19:45;;;;;;;1.95;0.30;;;;;;;22.24;57.14;101356.59;7362492;19;20025;-78
2023/07/18 11:22:14;;;;;;;2.50;0.20;;;;;;;22.27;57.63;101355.34;7360542;19;20015;-78
2023/07/18 11:24:43;;;;;;;3.08;0.47;;;;;;;22.28;57.27;101356.97;7361945;19;20021;-79
2023/07/18 11:27:22;;;;;;;2.40;0.20;;;;;;;22.30;57.42;101346.88;7360158;19;21379;-79
2023/07/18 11:29:59;;;;;;;3.65;0.30;;;;;;;22.26;57.57;101351.81;7364584;19;20018;-77
2023/07/18 11:32:47;;;;;;;1.70;0.20;;;;;;;22.22;57.20;101352.47;7360558;19;20022;-78
2023/07/18 11:35:22;;;;;;;4.70;0.52;;;;;;;22.19;57.41;101340.34;7364235;19;20041;-79
2023/07/18 11:37:53;;;;;;;3.10;0.40;;;;;;;22.20;57.62;101346.53;7359356;19;20043;-79
2023/07/18 11:40:25;;;;;;;1.80;0.60;;;;;;;22.21;56.90;101334.75;7358958;19;20381;-79
2023/07/18 11:42:57;;;;;;;3.15;0.30;;;;;;;22.22;57.91;101329.16;7361548;19;20014;-79
2023/07/18 11:45:26;;;;;;;4.10;0.30;;;;;;;22.23;57.14;101328.13;7363681;19;20010;-78
2023/07/18 11:47:54;;;;;;;3.83;0.25;;;;;;;22.25;56.87;101318.00;7362718;19;20102;-79
2023/07/18 11:50:26;;;;;;;1.88;0.20;;;;;;;22.25;57.13;101319.88;7361399;19;20018;-80
2023/07/18 11:52:58;;;;;;;0.80;0.30;;;;;;;22.27;56.30;101318.63;7360511;19;20015;-80
2023/07/18 11:55:25;;;;;;;3.58;0.35;;;;;;;22.30;56.93;101317.38;7364510;19;20014;-79
2023/07/18 11:57:52;;;;;;;2.42;0.30;;;;;;;22.35;56.14;101320.22;7363298;19;20018;-80
2023/07/18 12:00:20;;;;;;;2.45;0.30;;;;;;;22.39;56.48;101319.56;7370435;19;20035;-78
2023/07/18 12:02:48;;;;;;;2.53;0.20;;;;;;;22.39;55.40;101324.09;7370247;19;20014;-79
2023/07/18 12:05:16;;;;;;;1.38;0.20;;;;;;;22.35;53.97;101326.38;7367383;19;20010;-80
2023/07/18 12:07:44;;;;;;;2.83;0.47;;;;;;;22.36;56.31;101314.63;7365355;19;20007;-78
2023/07/18 12:10:14;;;;;;;1.80;0.25;;;;;;;22.37;55.23;101315.44;7367265;19;20033;-78
2023/07/18 12:12:41;;;;;;;1.98;0.17;;;;;;;22.36;54.52;101308.44;7369417;19;20789;-79
2023/07/18 12:15:10;;;;;;;2.03;0.17;;;;;;;22.35;53.89;101296.88;7369235;19;20439;-78
2023/07/18 12:17:38;;;;;;;2.10;0.30;;;;;;;22.34;53.78;101287.22;7368900;19;20060;-79
2023/07/18 12:20:06;;;;;;;9.90;2.47;;;;;;;22.34;54.17;101289.06;7369522;19;20090;-79
2023/07/18 12:22:34;;;;;;;5.38;0.60;;;;;;;22.34;54.63;101286.38;7362172;19;20015;-79
2023/07/18 12:25:03;;;;;;;2.63;0.30;;;;;;;22.34;54.76;101278.34;7366066;19;21021;-79
2023/07/18 12:27:30;;;;;;;3.35;0.30;;;;;;;22.33;52.59;101285.56;7367021;19;20011;-79
2023/07/18 12:29:57;;;;;;;1.92;0.20;;;;;;;22.36;51.90;101281.59;7367429;19;20349;-77
2023/07/18 12:32:24;;;;;;;3.55;0.20;;;;;;;22.41;51.70;101279.91;7365418;19;20019;-78
2023/07/18 12:34:58;;;;;;;3.97;0.30;;;;;;;22.48;51.60;101274.50;7364694;19;20018;-78
2023/07/18 12:37:26;;;;;;;3.08;0.20;;;;;;;22.56;51.34;101279.56;7369628;19;20018;-80
2023/07/18 12:39:53;;;;;;;3.00;0.20;;;;;;;22.65;52.26;101274.75;7364522;19;20055;-79
2023/07/18 12:42:21;;;;;;;2.25;0.30;;;;;;;22.70;52.44;101277.59;7365023;19;20007;-78
2023/07/18 12:44:51;;;;;;;3.47;0.40;;;;;;;22.75;52.38;101281.31;7368056;19;20353;-79
2023/07/18 12:47:18;;;;;;;4.32;0.30;;;;;;;22.81;51.80;101272.34;7367214;19;20447;-78
2023/07/18 12:49:45;;;;;;;1.67;0.20;;;;;;;22.80;51.45;101265.34;7363603;19;20078;-78
2023/07/18 12:52:15;;;;;;;2.40;0.20;;;;;;;22.79;51.92;101268.25;7363450;19;21043;-81
2023/07/18 12:54:42;;;;;;;2.33;0.25;;;;;;;22.77;53.00;101263.09;7364030;19;20015;-78
2023/07/18 12:57:10;;;;;;;2.60;0.20;;;;;;;22.73;51.14;101264.59;7367788;19;20014;-77
2023/07/18 12:59:37;;;;;;;2.45;0.77;;;;;;;22.74;52.07;101266.22;7363182;19;21365;-80
2023/07/18 13:02:04;;;;;;;2.55;0.30;;;;;;;22.79;51.85;101265.56;7363768;19;20064;-79
2023/07/18 13:04:32;;;;;;;2.08;0.40;;;;;;;22.76;51.83;101257.94;7368038;19;20660;-79
2023/07/18 13:06:59;;;;;;;1.65;0.22;;;;;;;22.76;53.04;101252.56;7368810;19;20684;-78
2023/07/18 13:09:26;;;;;;;1.00;0.20;;;;;;;22.78;51.78;101237.91;7364155;19;20014;-77
2023/07/18 13:11:53;;;;;;;2.60;0.20;;;;;;;22.80;51.58;101243.06;7366785;19;20018;-80
2023/07/18 13:14:21;;;;;;;3.03;0.30;;;;;;;22.80;51.40;101249.25;7362348;19;20044;-79
2023/07/18 13:16:48;;;;;;;3.15;0.30;;;;;;;22.86;51.20;101247.50;7365647;19;20738;-79
2023/07/18 13:19:15;;;;;;;3.47;0.20;;;;;;;22.89;50.45;101241.72;7364774;19;20073;-78
2023/07/18 13:21:44;;;;;;;1.52;0.30;;;;;;;22.87;50.34;101235.75;7363976;19;20019;-79
2023/07/18 13:24:11;;;;;;;1.08;0.20;;;;;;;22.91;50.66;101231.56;7363261;19;21922;-80
2023/07/18 13:26:38;;;;;;;1.98;0.20;;;;;;;22.92;50.81;101243.94;7363872;19;20010;-79
2023/07/18 13:29:08;;;;;;;4.10;0.30;;;;;;;22.93;50.92;101240.22;7365291;19;20011;-79
2023/07/18 13:31:36;;;;;;;4.47;0.30;;;;;;;22.96;50.49;101237.91;7368744;19;20019;-81
2023/07/18 13:34:04;;;;;;;3.47;0.30;;;;;;;22.98;49.89;101229.63;7359573;19;20066;-80
2023/07/18 13:36:32;;;;;;;2.33;0.30;;;;;;;23.00;52.31;101235.59;7363479;19;20022;-80
2023/07/18 13:38:59;;;;;;;3.67;0.30;;;;;;;23.00;51.84;101243.66;7364412;19;20044;-79
2023/07/18 13:41:27;;;;;;;2.47;0.30;;;;;;;23.02;52.22;101238.88;7362125;19;20018;-79
2023/07/18 13:43:54;;;;;;;3.40;0.45;;;;;;;23.01;52.04;101234.53;7367658;19;20273;-80
2023/07/18 13:46:21;;;;;;;1.98;0.30;;;;;;;23.02;52.66;101233.50;7363340;19;20489;-80
2023/07/18 13:48:54;;;;;;;5.25;0.40;;;;;;;23.02;51.87;101226.25;7363526;19;20261;-81
2023/07/18 13:51:21;;;;;;;3.03;0.40;;;;;;;23.02;51.43;101220.91;7367758;19;20018;-80
2023/07/18 13:53:49;;;;;;;1.83;0.35;;;;;;;23.01;52.25;101210.38;7360007;19;20015;-79
2023/07/18 13:56:16;;;;;;;4.43;0.30;;;;;;;22.96;51.35;101211.03;7366292;19;20039;-83
2023/07/18 13:58:44;;;;;;;1.92;0.40;;;;;;;22.99;50.95;101210.63;7368226;19;20025;-79
2023/07/18 14:01:11;;;;;;;3.33;0.40;;;;;;;23.05;51.36;101214.28;7363907;19;20083;-78
2023/07/18 14:03:38;;;;;;;1.92;0.20;;;;;;;23.11;49.49;101216.03;7362473;19;20010;-79
2023/07/18 14:06:20;;;;;;;2.97;0.30;;;;;;;23.20;49.57;101213.88;7362563;19;20021;-79
2023/07/18 14:08:49;;;;;;;2.58;0.30;;;;;;;23.29;49.38;101207.97;7361098;19;20014;-79
2023/07/18 14:11:16;;;;;;;1.15;0.20;;;;;;;23.38;49.30;101208.44;7364949;19;20507;-79
2023/07/18 14:13:43;;;;;;;1.55;0.30;;;;;;;23.49;49.06;101204.22;7362118;19;20015;-80
2023/07/18 14:16:14;;;;;;;3.45;0.77;;;;;;;23.58;48.69;101205.50;7363298;19;20014;-80
2023/07/18 14:18:42;;;;;;;1.40;0.30;;;;;;;23.62;48.21;101204.81;7359227;19;20007;-80
2023/07/18 14:21:09;;;;;;;7.93;0.38;;;;;;;23.63;47.51;101208.34;7363167;19;20540;-81
2023/07/18 14:23:36;;;;;;;1.15;0.35;;;;;;;23.66;47.43;101205.22;7359228;19;20083;-78
2023/07/18 14:26:19;;;;;;;3.05;0.30;;;;;;;23.67;47.80;101204.16;7362887;19;20453;-78
2023/07/18 14:28:47;;;;;;;1.45;0.25;;;;;;;23.68;49.34;101197.72;7360758;19;20033;-78
2023/07/18 14:31:17;;;;;;;4.35;0.40;;;;;;;23.66;48.47;101200.66;7350738;19;20114;-77
2023/07/18 14:33:45;;;;;;;1.92;0.28;;;;;;;23.64;49.06;101199.22;7356362;19;20536;-79
2023/07/18 14:36:31;;;;;;;1.75;0.30;;;;;;;23.60;48.14;101192.69;7360480;19;20010;-80
2023/07/18 14:38:58;;;;;;;5.30;0.32;;;;;;;23.56;48.78;101191.50;7355933;19;20015;-78
2023/07/18 14:41:25;;;;;;;5.85;0.40;;;;;;;23.47;48.49;101182.94;7363010;19;20718;-80
2023/07/18 14:43:52;;;;;;;3.63;0.30;;;;;;;23.43;49.35;101185.22;7363695;19;20014;-79
2023/07/18 14:46:21;;;;;;;4.57;0.40;;;;;;;23.41;49.95;101183.84;7361864;19;20010;-78
2023/07/18 14:48:51;;;;;;;3.58;0.30;;;;;;;23.38;49.83;101162.78;7357423;19;20031;-78
2023/07/18 14:51:20;;;;;;;3.05;0.30;;;;;;;23.34;50.10;101173.19;7355351;19;20443;-77
2023/07/18 14:53:47;;;;;;;3.95;0.40;;;;;;;23.35;51.53;101163.25;7347746;19;20390;-81
2023/07/18 14:56:23;;;;;;;5.85;0.40;;;;;;;23.35;49.96;101166.75;7360601;19;20528;-79
2023/07/18 14:58:50;;;;;;;4.28;0.40;;;;;;;23.39;49.21;101164.44;7357504;19;20816;-80
2023/07/18 15:01:17;;;;;;;1.33;0.40;;;;;;;23.43;49.29;101166.44;7360491;19;20014;-79
2023/07/18 15:03:44;;;;;;;4.88;0.85;;;;;;;23.48;49.11;101156.88;7360558;19;20022;-78
2023/07/18 15:06:17;;;;;;;3.45;0.50;;;;;;;23.55;49.53;101157.63;7358970;19;20105;-78
2023/07/18 15:08:47;;;;;;;2.33;0.45;;;;;;;23.55;49.98;101165.69;7355960;19;20022;-79
2023/07/18 15:11:14;;;;;;;3.20;0.60;;;;;;;23.51;49.89;101165.31;7355718;19;20031;-78
2023/07/18 15:13:41;;;;;;;2.72;0.35;;;;;;;23.48;50.62;101162.25;7356635;19;20086;-78
2023/07/18 15:16:22;;;;;;;3.20;0.60;;;;;;;23.47;50.53;101157.97;7358526;19;20014;-79
2023/07/18 15:18:50;;;;;;;1.73;0.60;;;;;;;23.42;51.31;101156.72;7355382;19;20097;-79
2023/07/18 15:21:17;;;;;;;2.38;0.40;;;;;;;23.39;50.96;101145.63;7356255;19;20669;-79
2023/07/18 15:23:44;;;;;;;1.60;0.50;;;;;;;23.35;51.40;101147.13;7351355;19;20117;-77
2023/07/18 15:26:13;;;;;;;2.50;0.52;;;;;;;23.32;51.16;101147.56;7358050;19;20102;-79
2023/07/18 15:28:45;;;;;;;4.88;0.40;;;;;;;23.28;51.38;101147.22;7357040;19;20014;-77
2023/07/18 15:31:15;;;;;;;3.80;0.40;;;;;;;23.28;52.77;101144.53;7358473;19;20014;-80
2023/07/18 15:33:42;;;;;;;6.47;0.47;;;;;;;23.26;53.37;101141.25;7363319;19;20020;-79
2023/07/18 15:36:21;;;;;;;4.03;0.82;;;;;;;23.25;52.37;101142.31;7361281;19;20051;-78
2023/07/18 15:38:50;;;;;;;3.70;0.50;;;;;;;23.28;52.11;101133.78;7362219;19;20018;-79
2023/07/18 15:41:17;;;;;;;3.95;0.52;;;;;;;23.32;52.01;101134.16;7367050;19;20014;-79
2023/07/18 15:43:44;;;;;;;3.45;0.30;;;;;;;23.34;51.64;101129.38;7366483;19;20010;-78
2023/07/18 15:46:17;;;;;;;1.83;0.40;;;;;;;23.37;51.24;101136.97;7366943;19;20014;-77
2023/07/18 15:48:44;;;;;;;4.15;0.50;;;;;;;23.42;51.51;101131.72;7363984;19;20021;-80
2023/07/18 15:51:12;;;;;;;5.50;0.50;;;;;;;23.43;51.93;101131.50;7364345;19;20390;-79
2023/07/18 15:53:39;;;;;;;1.83;0.32;;;;;;;23.43;52.01;101128.00;7362950;19;20043;-80
2023/07/18 15:56:16;;;;;;;2.60;0.65;;;;;;;23.45;53.16;101131.31;7365651;19;20109;-77
2023/07/18 15:58:43;;;;;;;3.55;0.50;;;;;;;23.45;53.71;101117.88;7363148;19;21353;-78
2023/07/18 16:01:11;;;;;;;3.90;0.50;;;;;;;23.46;52.98;101132.13;7363738;19;20010;-78
2023/07/18 16:03:38;;;;;;;2.10;0.60;;;;;;;23.51;53.61;101116.13;7361078;19;20015;-79
2023/07/18 16:06:10;;;;;;;2.22;0.50;;;;;;;23.54;53.25;101115.66;7363086;19;20002;-79
2023/07/18 16:08:38;;;;;;;5.03;0.70;;;;;;;23.53;53.43;101112.16;7360784;19;20343;-77
2023/07/18 16:11:05;;;;;;;4.10;0.40;;;;;;;23.52;53.67;101113.19;7365271;19;20518;-77
2023/07/18 16:13:32;;;;;;;2.33;0.45;;;;;;;23.48;53.29;101121.97;7364695;19;20039;-78
2023/07/18 16:15:59;;;;;;;2.63;0.50;;;;;;;23.47;53.37;101114.97;7361011;19;20010;-79
2023/07/18 16:18:26;;;;;;;5.03;0.50;;;;;;;23.43;53.54;101111.88;7364415;19;20035;-79
2023/07/18 16:20:54;;;;;;;3.97;0.68;;;;;;;23.40;52.89;101107.78;7363364;19;20049;-79
2023/07/18 16:23:21;;;;;;;4.93;0.50;;;;;;;23.40;53.11;101102.41;7360557;19;20022;-78
2023/07/18 16:25:48;;;;;;;4.72;0.52;;;;;;;23.39;54.07;101100.78;7361579;19;20047;-78
2023/07/18 16:28:15;;;;;;;4.07;0.43;;;;;;;23.38;53.92;101096.44;7364347;19;20019;-77
2023/07/18 16:30:42;;;;;;;4.95;0.55;;;;;;;23.39;54.17;101099.94;7365105;19;20022;-79
2023/07/18 16:33:09;;;;;;;3.75;0.60;;;;;;;23.38;54.70;101087.56;7363812;19;20018;-79
2023/07/18 16:35:36;;;;;;;2.28;0.40;;;;;;;23.36;54.46;101078.94;7364375;19;20018;-78
2023/07/18 16:38:04;;;;;;;3.40;0.50;;;;;;;23.36;55.08;101077.06;7355480;19;20643;-79
2023/07/18 16:40:32;;;;;;;3.25;0.60;;;;;;;23.36;55.64;101071.69;7364255;19;20493;-79
2023/07/18 16:42:59;;;;;;;4.05;0.57;;;;;;;23.37;53.37;101077.88;7360065;19;20553;-80
2023/07/18 16:45:26;;;;;;;3.03;0.50;;;;;;;23.37;51.04;101073.31;7362961;19;20229;-80
2023/07/18 16:47:53;;;;;;;4.28;0.77;;;;;;;23.38;50.68;101074.94;7363404;19;20642;-79
2023/07/18 16:50:20;;;;;;;3.03;0.40;;;;;;;23.42;50.39;101078.81;7359943;19;21087;-79
2023/07/18 16:52:48;;;;;;;3.65;0.50;;;;;;;23.43;50.12;101080.44;7361408;19;20282;-80
2023/07/18 16:55:15;;;;;;;3.42;0.50;;;;;;;23.45;49.88;101074.88;7363129;19;20014;-78
2023/07/18 16:57:42;;;;;;;1.63;0.40;;;;;;;23.44;49.54;101079.41;7361514;19;20021;-78
2023/07/18 17:00:10;;;;;;;4.57;0.50;;;;;;;23.43;49.22;101085.81;7364143;19;20098;-79
2023/07/18 17:02:37;;;;;;;2.17;0.40;;;;;;;23.42;48.85;101078.81;7362200;19;20045;-78
2023/07/18 17:05:05;;;;;;;1.85;0.50;;;;;;;23.43;49.75;101080.44;7360094;19;20018;-77
2023/07/18 17:07:32;;;;;;;2.20;0.57;;;;;;;23.41;49.59;101071.81;7363928;19;20616;-78
2023/07/18 17:10:00;;;;;;;3.08;0.50;;;;;;;23.39;50.10;101070.41;7365692;19;20020;-78
2023/07/18 17:12:27;;;;;;;3.00;0.60;;;;;;;23.39;50.99;101073.09;7365000;19;20014;-78
2023/07/18 17:14:55;;;;;;;2.90;0.50;;;;;;;23.38;50.98;101055.31;7363803;19;20086;-79
2023/07/18 17:17:22;;;;;;;3.92;0.50;;;;;;;23.38;50.29;101055.31;7364530;19;20784;-78
2023/07/18 17:19:49;;;;;;;2.65;0.40;;;;;;;23.36;50.49;101044.84;7363488;19;20015;-79
2023/07/18 17:22:33;;;;;;;4.93;0.50;;;;;;;23.34;49.93;101044.22;7359535;19;20015;-79
2023/07/18 17:25:00;;;;;;;4.10;0.40;;;;;;;23.37;49.88;101046.44;7359286;19;20040;-79
2023/07/18 17:27:27;;;;;;;2.50;0.40;;;;;;;23.38;49.96;101044.59;7363444;19;20014;-77
2023/07/18 17:29:54;;;;;;;2.15;0.45;;;;;;;23.36;49.72;101041.31;7363118;19;20011;-78
2023/07/18 17:32:21;;;;;;;2.58;0.47;;;;;;;23.35;50.99;101039.69;7360963;19;20014;-79
2023/07/18 17:34:48;;;;;;;3.13;0.65;;;;;;;23.33;51.38;101034.53;7362968;19;20057;-79
2023/07/18 17:37:15;;;;;;;3.17;0.57;;;;;;;23.30;50.24;101040.38;7357706;19;20010;-80
2023/07/18 17:39:44;;;;;;;1.80;0.38;;;;;;;23.27;50.48;101037.31;7355545;19;20031;-78
2023/07/18 17:42:11;;;;;;;4.63;0.40;;;;;;;23.23;50.66;101034.28;7361137;19;20006;-78
2023/07/18 17:44:39;;;;;;;3.05;0.50;;;;;;;23.19;49.90;101034.97;7362571;19;20010;-79
2023/07/18 17:47:07;;;;;;;1.50;0.40;;;;;;;23.18;51.60;101038.72;7362159;19;20433;-78
2023/07/18 17:49:34;;;;;;;3.28;0.40;;;;;;;23.14;50.71;101026.78;7359723;19;20021;-78
2023/07/18 17:52:01;;;;;;;2.58;0.50;;;;;;;23.12;51.65;101027.00;7360696;19;20019;-78
2023/07/18 17:54:28;;;;;;;4.03;0.47;;;;;;;23.11;51.00;101027.28;7358537;19;20014;-78
2023/07/18 17:56:55;;;;;;;4.88;0.55;;;;;;;23.10;51.04;101023.75;7363605;19;20022;-80
2023/07/18 17:59:22;;;;;;;2.35;0.50;;;;;;;23.07;51.82;101024.22;7361304;19;20089;-81
2023/07/18 18:01:50;;;;;;;2.38;0.30;;;;;;;23.08;52.60;101019.66;7363439;19;20014;-80
2023/07/18 18:04:17;;;;;;;2.33;0.50;;;;;;;23.08;51.31;101017.78;7360001;19;20019;-79
2023/07/18 18:06:46;;;;;;;2.83;0.80;;;;;;;23.07;51.84;101016.16;7362988;19;20022;-79
2023/07/18 18:09:13;;;;;;;3.03;0.40;;;;;;;23.08;51.97;101022.34;7358464;19;20038;-78
2023/07/18 18:11:40;;;;;;;4.72;0.50;;;;;;;23.07;51.89;101018.00;7361033;19;20022;-79
2023/07/18 18:14:07;;;;;;;3.80;0.47;;;;;;;23.07;52.67;101015.31;7360720;19;20014;-79
2023/07/18 18:16:35;;;;;;;6.60;0.60;;;;;;;23.05;53.27;101010.22;7359740;19;20022;-78
2023/07/18 18:19:02;;;;;;;4.07;0.50;;;;;;;23.03;53.50;101017.66;7362368;19;20066;-79
2023/07/18 18:21:29;;;;;;;4.20;0.40;;;;;;;23.02;53.67;101016.03;7362447;19;20192;-80
2023/07/18 18:23:56;;;;;;;1.70;0.47;;;;;;;22.97;52.83;101026.63;7353664;19;20085;-79
2023/07/18 18:26:24;;;;;;;3.85;0.50;;;;;;;22.96;52.79;101019.63;7361545;19;20006;-79
2023/07/18 18:28:52;;;;;;;3.72;0.60;;;;;;;22.94;53.20;101019.06;7359066;19;20321;-78
2023/07/18 18:31:20;;;;;;;3.53;0.80;;;;;;;22.92;53.01;101021.13;7362599;19;20020;-78
2023/07/18 18:33:47;;;;;;;2.47;0.50;;;;;;;22.93;53.46;101028.13;7359344;19;20025;-78
2023/07/18 18:36:15;;;;;;;2.90;0.50;;;;;;;22.92;53.15;101032.69;7361147;19;20086;-79
2023/07/18 18:38:43;;;;;;;4.47;0.60;;;;;;;22.92;53.19;101031.88;7351857;19;20017;-78
2023/07/18 18:41:10;;;;;;;3.35;0.77;;;;;;;22.92;53.31;101029.19;7357626;19;20584;-77